Time;durP1;ratioP1;P1;durP2;ratioP2;P2;SDS_P1;SDS_P2;PMS_P1;PMS_P2;Temp;Humidity;BMP_temperature;BMP_pressure;BME280_temperature;BME280_humidity;BME280_pressure;Samples;Min_cycle;Max_cycle;Signal;HPM_P1;HPM_P2
2023/01/26 00:01:35;;;;;;;;;54.75;41.75;;;;;4.91;65.81;102153.38;6250051;22;45361;-79
2023/01/26 00:04:00;;;;;;;;;47.25;40.00;;;;;5.01;65.45;102160.56;6250860;22;45342;-79
2023/01/26 00:06:25;;;;;;;;;36.75;31.25;;;;;5.00;66.47;102156.13;6277371;22;46146;-78
2023/01/26 00:08:53;;;;;;;;;36.25;34.50;;;;;4.93;65.81;102148.13;6277345;22;45389;-78
2023/01/26 00:11:29;;;;;;;;;38.50;34.00;;;;;4.94;66.16;102134.00;6276247;22;45324;-79
2023/01/26 00:13:56;;;;;;;;;46.25;37.50;;;;;5.10;66.01;102165.09;6248294;22;45886;-78
2023/01/26 00:16:22;;;;;;;;;46.75;36.00;;;;;5.09;66.18;102158.00;6276795;22;46531;-79
2023/01/26 00:18:47;;;;;;;;;36.75;34.00;;;;;5.09;66.40;102141.25;6249508;22;46104;-79
2023/01/26 00:21:16;;;;;;;;;45.25;37.75;;;;;5.10;66.90;102135.09;6277008;22;45172;-79
2023/01/26 00:23:41;;;;;;;;;45.50;39.00;;;;;5.05;67.10;102127.09;6249595;22;45949;-78
2023/01/26 00:26:09;;;;;;;;;49.00;40.25;;;;;5.03;66.63;102114.69;6250025;22;47856;-78
2023/01/26 00:28:35;;;;;;;;;61.75;46.25;;;;;5.07;66.53;102127.13;6249417;22;45177;-79
2023/01/26 00:31:04;;;;;;;;;48.00;40.25;;;;;5.10;65.98;102121.88;6277140;22;45398;-78
2023/01/26 00:33:29;;;;;;;;;51.75;43.50;;;;;4.89;66.84;102082.78;6277828;22;45254;-78
2023/01/26 00:35:55;;;;;;;;;60.50;47.50;;;;;4.97;65.73;102091.69;6278774;22;45952;-79
2023/01/26 00:38:20;;;;;;;;;53.00;44.75;;;;;5.00;66.20;102108.50;6249450;22;45256;-78
2023/01/26 00:40:45;;;;;;;;;59.50;46.25;;;;;4.99;66.38;102104.09;6278234;22;45317;-79
2023/01/26 00:43:11;;;;;;;;;60.00;44.50;;;;;4.84;66.69;102080.06;6250658;22;45870;-78
2023/01/26 00:45:36;;;;;;;;;56.50;44.25;;;;;4.85;66.15;102073.03;6250856;22;47587;-78
2023/01/26 00:48:01;;;;;;;;;58.75;44.00;;;;;4.81;66.85;102064.16;6278179;22;45255;-78
2023/01/26 00:50:27;;;;;;;;;57.00;44.00;;;;;4.76;67.38;102047.31;6251042;22;45233;-79
2023/01/26 00:52:52;;;;;;;;;56.50;42.00;;;;;5.01;67.16;102083.81;6250844;22;45446;-78
2023/01/26 00:55:18;;;;;;;;;55.00;42.50;;;;;4.93;67.69;102072.25;6251270;22;47715;-78
2023/01/26 00:57:43;;;;;;;;;64.75;50.50;;;;;4.92;67.23;102074.88;6277678;22;45368;-78
2023/01/26 01:00:13;;;;;;;;;57.50;44.75;;;;;5.00;67.41;102082.03;6278467;22;45769;-78
2023/01/26 01:02:38;;;;;;;;;63.75;49.50;;;;;4.94;67.36;102067.84;6277681;22;45298;-79
2023/01/26 01:05:04;;;;;;;;;65.75;47.75;;;;;4.85;67.45;102051.88;6278377;22;45267;-78
2023/01/26 01:07:29;;;;;;;;;54.25;43.75;;;;;4.96;67.62;102072.28;6249091;22;45321;-78
2023/01/26 01:09:54;;;;;;;;;62.75;46.25;;;;;4.83;67.61;102052.72;6250622;22;45263;-79
2023/01/26 01:12:20;;;;;;;;;54.00;45.00;;;;;5.01;67.68;102082.91;6277742;22;45293;-79
2023/01/26 01:14:45;;;;;;;;;59.00;43.75;;;;;4.93;66.96;102052.84;6278168;22;46140;-79
2023/01/26 01:17:10;;;;;;;;;58.75;45.50;;;;;5.04;67.59;102068.84;6278104;22;45388;-79
2023/01/26 01:19:36;;;;;;;;;61.25;45.50;;;;;5.04;67.21;102063.56;6276867;22;45222;-79
2023/01/26 01:22:02;;;;;;;;;57.25;47.25;;;;;4.91;67.98;102036.97;6278161;22;45191;-79
2023/01/26 01:24:27;;;;;;;;;57.50;41.25;;;;;5.03;67.42;102057.38;6278338;22;46105;-79
2023/01/26 01:26:53;;;;;;;;;59.50;46.00;;;;;4.89;67.42;102051.91;6278102;22;45124;-79
2023/01/26 01:29:18;;;;;;;;;63.00;48.50;;;;;4.95;67.65;102059.91;6278086;22;45149;-79
2023/01/26 01:31:43;;;;;;;;;66.75;53.75;;;;;4.87;67.43;102034.25;6277519;22;45128;-78
2023/01/26 01:34:09;;;;;;;;;61.00;47.50;;;;;4.86;66.81;102038.66;6250507;22;46285;-79
2023/01/26 01:36:34;;;;;;;;;53.75;45.25;;;;;4.91;67.35;102047.53;6250559;22;45100;-78
2023/01/26 01:39:00;;;;;;;;;61.25;45.75;;;;;4.95;67.56;102051.97;6249930;22;45214;-79
2023/01/26 01:41:25;;;;;;;;;58.25;45.25;;;;;4.75;67.10;102017.34;6250844;22;45388;-78
2023/01/26 01:43:51;;;;;;;;;53.50;42.75;;;;;4.93;67.33;102051.09;6277763;22;45952;-79
2023/01/26 01:46:25;;;;;;;;;56.75;45.50;;;;;4.92;67.28;102051.06;6278192;22;45243;-79
2023/01/26 01:48:57;;;;;;;;;57.50;44.75;;;;;4.79;67.11;102039.44;6278043;22;45254;-79
2023/01/26 01:51:33;;;;;;;;;60.75;49.50;;;;;4.86;67.88;102049.25;6277855;22;45397;-78
2023/01/26 01:54:07;;;;;;;;;68.25;47.75;;;;;4.76;67.68;102029.72;6276931;22;47141;-78
2023/01/26 01:56:35;;;;;;;;;63.00;46.25;;;;;4.73;67.59;102032.31;6277964;22;45199;-78
2023/01/26 01:59:02;;;;;;;;;61.25;49.50;;;;;4.84;67.90;102045.66;6249980;22;45273;-79
2023/01/26 02:01:28;;;;;;;;;47.00;41.75;;;;;4.83;66.91;102057.13;6277499;22;45505;-78
2023/01/26 02:04:00;;;;;;;;;57.25;42.50;;;;;4.72;67.45;102041.13;6278417;22;45235;-79
2023/01/26 02:06:35;;;;;;;;;54.75;44.75;;;;;4.72;67.99;102033.19;6277472;22;45685;-79
2023/01/26 02:09:02;;;;;;;;;62.25;47.75;;;;;4.71;67.52;102038.44;6249975;22;45265;-78
2023/01/26 02:11:35;;;;;;;;;58.50;44.50;;;;;4.76;67.43;102052.63;6277612;22;45297;-78
2023/01/26 02:14:05;;;;;;;;;59.50;46.50;;;;;4.75;67.85;102045.56;6277674;22;45979;-78
2023/01/26 02:16:31;;;;;;;;;50.00;43.75;;;;;4.74;68.07;102042.00;6277225;22;45720;-78
2023/01/26 02:18:56;;;;;;;;;65.25;50.50;;;;;4.69;67.84;102034.91;6278122;22;45285;-78
2023/01/26 02:21:22;;;;;;;;;66.50;49.00;;;;;4.73;68.10;102042.91;6277463;22;45332;-79
2023/01/26 02:24:11;;;;;;;;;63.00;48.25;;;;;4.74;68.44;102051.72;6278383;22;45363;-78
2023/01/26 02:26:37;;;;;;;;;54.50;41.75;;;;;4.75;68.26;102045.56;6250858;22;45250;-78
2023/01/26 02:29:06;;;;;;;;;60.00;48.00;;;;;4.76;67.90;102042.03;6250590;22;45301;-78
2023/01/26 02:31:32;;;;;;;;;58.25;43.25;;;;;4.73;67.50;102040.25;6249991;22;45926;-79
2023/01/26 02:33:57;;;;;;;;;64.25;47.50;;;;;4.73;68.57;102040.25;6250462;22;47134;-78
2023/01/26 02:36:28;;;;;;;;;54.00;44.50;;;;;4.66;67.65;102017.25;6277933;22;45238;-78
2023/01/26 02:39:01;;;;;;;;;59.75;48.75;;;;;4.74;67.85;102027.91;6250724;22;45324;-78
2023/01/26 02:44:12;;;;;;;;;68.75;51.50;;;;;4.77;67.75;102039.41;6277716;22;45545;-78
2023/01/26 02:46:38;;;;;;;;;66.50;49.25;;;;;4.73;68.21;102037.63;6250393;22;45281;-78
2023/01/26 02:51:47;;;;;;;;;70.00;48.75;;;;;4.72;68.23;102033.19;6277636;22;45256;-78
2023/01/26 02:55:21;;;;;;;;;57.00;44.75;;;;;4.64;67.95;102014.59;6278834;22;45275;-78
2023/01/26 02:56:58;;;;;;;;;55.25;46.00;;;;;4.70;68.96;102028.75;6277154;22;45804;-78
2023/01/26 02:59:23;;;;;;;;;52.75;45.25;;;;;4.68;68.16;102018.16;6277996;22;45257;-78
2023/01/26 03:01:51;;;;;;;;;56.00;43.00;;;;;4.76;68.34;102026.16;6277309;22;45295;-78
2023/01/26 03:04:17;;;;;;;;;58.25;45.00;;;;;4.77;68.69;102020.91;6277591;22;46172;-78
2023/01/26 03:06:42;;;;;;;;;60.00;45.75;;;;;4.71;69.09;102012.91;6277220;22;45220;-79
2023/01/26 03:09:07;;;;;;;;;57.25;46.50;;;;;4.75;68.58;102017.34;6249535;22;45190;-78
2023/01/26 03:11:40;;;;;;;;;66.00;47.75;;;;;4.80;68.49;102020.94;6249617;22;45665;-79
2023/01/26 03:14:10;;;;;;;;;54.50;42.50;;;;;4.71;68.63;102012.91;6249138;22;47975;-78
2023/01/26 03:16:35;;;;;;;;;60.75;49.50;;;;;4.53;68.62;101980.94;6276976;22;45253;-78
2023/01/26 03:29:56;;;;;;;;;61.50;46.75;;;;;4.76;68.56;101989.13;6262725;22;45342;-78
2023/01/26 03:32:22;;;;;;;;;53.75;46.25;;;;;4.77;68.83;101985.63;6249963;22;45481;-78
2023/01/26 03:34:47;;;;;;;;;54.75;44.50;;;;;4.82;68.86;101992.72;6249387;22;48016;-79
2023/01/26 03:37:13;;;;;;;;;56.25;44.75;;;;;4.77;68.61;101968.00;6276994;22;45250;-78
2023/01/26 03:56:23;;;;;;;;;60.25;44.25;;;;;4.75;68.32;101963.56;6277352;22;45177;-78
2023/01/26 03:59:07;;;;;;;;;51.25;41.75;;;;;4.77;68.22;101973.28;6249492;22;45477;-78
2023/01/26 04:01:41;;;;;;;;;45.50;40.75;;;;;4.83;69.52;101981.28;6276331;22;45346;-78
2023/01/26 04:09:40;;;;;;;;;45.50;40.25;;;;;4.89;68.98;101984.88;6277070;22;45218;-78
2023/01/26 04:12:05;;;;;;;;;46.50;40.50;;;;;4.79;68.87;101968.91;6249964;22;45281;-78
2023/01/26 04:22:44;;;;;;;;;53.00;42.25;;;;;4.80;68.74;101964.50;6276734;22;45392;-78
2023/01/26 04:25:18;;;;;;;;;50.00;41.00;;;;;4.86;68.63;101975.16;6276430;22;45360;-78
2023/01/26 04:27:44;;;;;;;;;43.75;36.25;;;;;4.81;69.20;101974.19;6276698;22;46553;-78
2023/01/26 04:30:11;;;;;;;;;45.75;40.75;;;;;4.76;68.59;101960.94;6276367;22;45763;-78
2023/01/26 04:32:37;;;;;;;;;47.50;43.00;;;;;4.64;69.57;101952.84;6277104;22;45424;-78
2023/01/26 04:35:04;;;;;;;;;46.25;39.25;;;;;4.72;68.99;101972.34;6276788;22;45379;-78
2023/01/26 04:37:30;;;;;;;;;48.00;41.00;;;;;4.76;69.68;101984.75;6277179;22;45233;-78
2023/01/26 04:39:55;;;;;;;;;55.50;44.75;;;;;4.66;69.92;101959.06;6249512;22;45602;-78
2023/01/26 04:42:23;;;;;;;;;59.25;46.75;;;;;4.75;69.45;101966.22;6249766;22;45356;-78
2023/01/26 04:44:49;;;;;;;;;49.50;39.50;;;;;4.70;69.38;101959.97;6276943;22;45219;-78
2023/01/26 04:47:14;;;;;;;;;52.00;43.00;;;;;4.67;68.72;101955.53;6249453;22;48385;-78
2023/01/26 04:49:39;;;;;;;;;54.00;43.00;;;;;4.72;69.17;101971.47;6276835;22;45366;-78
2023/01/26 04:52:05;;;;;;;;;51.25;40.75;;;;;4.73;69.53;101982.06;6250028;22;45283;-78
2023/01/26 04:54:30;;;;;;;;;53.50;43.25;;;;;4.65;69.32;101967.84;6277026;22;45335;-78
2023/01/26 04:56:55;;;;;;;;;58.75;42.50;;;;;4.60;69.73;101961.63;6248699;22;46845;-78
2023/01/26 04:59:21;;;;;;;;;49.00;40.33;;;;;4.60;69.52;101966.91;6276558;22;45375;-78
2023/01/26 05:01:46;;;;;;;;;61.75;46.75;;;;;4.71;69.76;101988.19;6276936;22;45585;-78
2023/01/26 05:04:13;;;;;;;;;43.50;37.25;;;;;4.74;70.09;101982.94;6249898;22;45721;-78
2023/01/26 05:06:38;;;;;;;;;49.50;42.25;;;;;4.58;69.78;101958.09;6276751;22;45172;-78
2023/01/26 05:09:04;;;;;;;;;46.00;40.00;;;;;4.60;69.57;101946.63;6276546;22;45266;-78
2023/01/26 05:11:29;;;;;;;;;45.50;40.00;;;;;4.58;69.67;101942.22;6277054;22;45308;-78
2023/01/26 05:13:54;;;;;;;;;45.75;39.25;;;;;4.68;69.88;101959.06;6248686;22;45196;-78
2023/01/26 05:16:20;;;;;;;;;50.75;41.00;;;;;4.78;70.06;101979.47;6276409;22;45281;-78
2023/01/26 05:18:45;;;;;;;;;44.25;39.25;;;;;4.75;70.07;101972.38;6276435;22;45250;-78
2023/01/26 05:21:10;;;;;;;;;45.75;39.50;;;;;4.73;69.45;101971.47;6251119;22;45127;-78
2023/01/26 05:23:36;;;;;;;;;48.25;41.00;;;;;4.71;69.52;101978.53;6278527;22;45160;-78
2023/01/26 05:26:02;;;;;;;;;48.75;40.00;;;;;4.71;69.80;101974.97;6277945;22;45230;-78
2023/01/26 05:28:27;;;;;;;;;53.50;42.25;;;;;4.66;69.94;101968.75;6278214;22;45824;-78
2023/01/26 05:30:53;;;;;;;;;48.25;35.00;;;;;4.61;70.28;101953.72;6277918;22;45227;-78
2023/01/26 05:33:21;;;;;;;;;43.75;38.50;;;;;4.64;70.47;101966.97;6251023;22;45370;-78
2023/01/26 05:35:55;;;;;;;;;48.00;39.75;;;;;4.64;69.86;101959.03;6250404;22;47237;-78
2023/01/26 05:38:21;;;;;;;;;47.50;38.75;;;;;4.73;69.42;101979.41;6249950;22;45724;-78
2023/01/26 05:40:46;;;;;;;;;41.00;37.75;;;;;4.74;69.90;101981.16;6250941;22;45263;-78
2023/01/26 05:43:12;;;;;;;;;59.25;46.25;;;;;4.73;69.85;101974.13;6250693;22;45783;-78
2023/01/26 05:45:38;;;;;;;;;42.25;38.25;;;;;4.75;69.68;101975.03;6250717;22;47042;-78
2023/01/26 05:48:04;;;;;;;;;58.00;43.00;;;;;4.73;70.18;101970.59;6278376;22;45638;-78
2023/01/26 05:50:30;;;;;;;;;27.50;16.50;;;;;4.67;70.24;101962.59;6277824;22;45207;-78
2023/01/26 05:52:55;;;;;;;;;52.50;43.00;;;;;4.59;69.90;101951.91;6277922;22;45211;-78
2023/01/26 05:55:21;;;;;;;;;52.75;38.75;;;;;4.65;69.93;101965.22;6278042;22;45698;-78
2023/01/26 05:57:47;;;;;;;;;49.25;40.75;;;;;4.74;69.73;101981.16;6277232;22;45143;-78
2023/01/26 06:00:13;;;;;;;;;58.50;43.00;;;;;4.74;69.81;101982.94;6250114;22;45333;-78
2023/01/26 06:02:38;;;;;;;;;52.50;43.00;;;;;4.73;69.80;101983.84;6277761;22;45348;-78
2023/01/26 06:05:04;;;;;;;;;51.75;42.25;;;;;4.62;69.89;101959.88;6278157;22;45393;-78
2023/01/26 06:07:30;;;;;;;;;50.50;42.75;;;;;4.72;70.24;101974.97;6276330;22;45721;-78
2023/01/26 06:09:55;;;;;;;;;41.00;35.50;;;;;4.71;70.37;101983.81;6277650;22;45242;-78
2023/01/26 06:12:21;;;;;;;;;44.75;40.50;;;;;4.68;70.73;101969.63;6277848;22;45261;-78
2023/01/26 06:14:47;;;;;;;;;56.50;39.75;;;;;4.69;70.95;101972.31;6250473;22;46982;-78
2023/01/26 06:17:13;;;;;;;;;58.00;44.75;;;;;4.76;70.77;101990.03;6250480;22;45548;-78
2023/01/26 06:19:39;;;;;;;;;60.25;40.75;;;;;4.62;70.21;101951.94;6277089;22;45183;-78
2023/01/26 06:22:12;;;;;;;;;44.75;42.00;;;;;4.76;69.80;101970.59;6250130;22;45722;-78
2023/01/26 06:24:37;;;;;;;;;54.75;43.00;;;;;4.56;70.59;101936.91;6277199;22;45209;-78
2023/01/26 06:27:05;;;;;;;;;23.25;19.75;;;;;4.66;71.04;101958.16;6277895;22;45278;-78
2023/01/26 06:29:32;;;;;;;;;57.00;44.25;;;;;4.76;70.77;101984.75;6277568;22;45183;-78
2023/01/26 06:31:58;;;;;;;;;50.75;43.00;;;;;4.66;70.68;101959.06;6248625;22;45379;-78
2023/01/26 06:34:23;;;;;;;;;52.25;43.00;;;;;4.70;70.57;101965.28;6277551;22;46054;-78
2023/01/26 06:36:48;;;;;;;;;52.75;38.00;;;;;4.60;70.83;101951.06;6277403;22;45265;-78
2023/01/26 06:39:15;;;;;;;;;48.50;43.00;;;;;4.66;70.76;101958.16;6278543;22;45204;-78
2023/01/26 06:41:42;;;;;;;;;56.50;44.25;;;;;4.62;70.60;101954.59;6277160;22;45404;-78
2023/01/26 06:44:08;;;;;;;;;57.25;45.00;;;;;4.67;70.57;101963.47;6250380;22;46864;-78
2023/01/26 06:46:33;;;;;;;;;50.25;40.25;;;;;4.72;71.06;101977.63;6250179;22;45206;-78
2023/01/26 06:49:01;;;;;;;;;44.50;37.25;;;;;4.72;70.63;101984.69;6250123;22;45192;-78
2023/01/26 06:51:32;;;;;;;;;56.00;43.00;;;;;4.69;70.85;101988.16;6276800;22;45236;-78
2023/01/26 06:53:57;;;;;;;;;48.75;41.75;;;;;4.68;71.33;101988.16;6278025;22;45573;-78
2023/01/26 06:56:24;;;;;;;;;59.25;44.00;;;;;4.66;70.69;101982.88;6249990;22;45259;-78
2023/01/26 06:58:50;;;;;;;;;54.00;43.75;;;;;4.60;71.04;101970.44;6250133;22;45265;-78
2023/01/26 07:01:18;;;;;;;;;49.50;40.75;;;;;4.63;70.68;101978.41;6276198;22;45259;-79
2023/01/26 07:03:43;;;;;;;;;63.50;45.75;;;;;4.73;71.52;101992.66;6277823;22;45999;-79
2023/01/26 07:06:12;;;;;;;;;54.25;42.25;;;;;4.64;71.39;101963.44;6276115;22;45294;-78
2023/01/26 07:08:38;;;;;;;;;43.50;36.50;;;;;4.80;71.04;101988.31;6279519;22;45242;-79
2023/01/26 07:11:04;;;;;;;;;44.25;39.25;;;;;4.79;70.89;101987.44;6249913;22;45430;-79
2023/01/26 07:13:29;;;;;;;;;50.25;39.75;;;;;4.66;70.68;101963.44;6277820;22;46509;-79
2023/01/26 07:16:05;;;;;;;;;57.25;41.25;;;;;4.77;70.87;101994.44;6249054;22;45143;-78
2023/01/26 07:18:31;;;;;;;;;44.75;34.25;;;;;4.68;71.27;101970.53;6277381;22;45215;-79
2023/01/26 07:21:14;;;;;;;;;41.25;35.25;;;;;4.79;71.05;101982.16;6249328;22;45396;-79
2023/01/26 07:23:39;;;;;;;;;40.00;34.75;;;;;4.81;71.07;101977.75;6249444;22;48219;-79
2023/01/26 07:26:06;;;;;;;;;50.25;40.75;;;;;4.67;71.00;101965.22;6277880;22;45132;-79
2023/01/26 07:28:33;;;;;;;;;44.75;37.25;;;;;4.79;71.01;101978.59;6277574;22;45231;-79
2023/01/26 07:30:59;;;;;;;;;42.50;32.00;;;;;4.86;71.32;101996.31;6276785;22;45328;-79
2023/01/26 07:33:25;;;;;;;;;56.25;43.00;;;;;4.70;71.41;101975.84;6248341;22;47353;-79
2023/01/26 07:35:54;;;;;;;;;55.75;43.00;;;;;4.76;71.22;101987.41;6277537;22;45259;-79
2023/01/26 07:38:20;;;;;;;;;49.00;39.75;;;;;4.64;71.85;101964.34;6277123;22;45198;-79
2023/01/26 07:40:45;;;;;;;;;57.25;44.50;;;;;4.64;71.16;101966.97;6250058;22;45503;-79
2023/01/26 07:43:12;;;;;;;;;46.25;42.50;;;;;4.68;71.06;101974.94;6276744;22;45234;-79
2023/01/26 07:45:37;;;;;;;;;60.50;46.00;;;;;4.71;71.02;101982.91;6249465;22;45638;-79
2023/01/26 07:48:02;;;;;;;;;63.00;46.00;;;;;4.69;71.55;101985.53;6277314;22;45254;-79
2023/01/26 07:50:28;;;;;;;;;54.75;39.50;;;;;4.71;71.65;101990.84;6276244;22;45524;-79
2023/01/26 07:52:53;;;;;;;;;49.00;40.50;;;;;4.60;71.96;101970.44;6276657;22;45259;-79
2023/01/26 07:55:19;;;;;;;;;55.75;45.25;;;;;4.78;71.30;102005.94;6277443;22;45223;-79
2023/01/26 07:57:48;;;;;;;;;50.50;40.50;;;;;4.67;71.58;101989.91;6248995;22;45392;-79
2023/01/26 08:00:14;;;;;;;;;33.75;32.25;;;;;4.80;71.60;102004.19;6249635;22;45198;-79
2023/01/26 08:02:40;;;;;;;;;46.25;39.75;;;;;4.74;72.25;101989.09;6249489;22;48037;-79
2023/01/26 08:05:06;;;;;;;;;48.75;41.25;;;;;4.86;72.70;102012.19;6277837;22;45236;-77
2023/01/26 08:07:31;;;;;;;;;56.25;45.25;;;;;4.63;72.15;101969.59;6244648;22;45329;-79
2023/01/26 08:09:58;;;;;;;;;56.50;44.50;;;;;4.85;71.73;102007.78;6247504;22;45171;-79
2023/01/26 08:12:23;;;;;;;;;57.25;45.00;;;;;4.92;72.18;102012.25;6274486;22;45689;-79
2023/01/26 08:14:49;;;;;;;;;58.00;44.00;;;;;4.90;72.07;102010.47;6276536;22;45387;-79
2023/01/26 08:17:16;;;;;;;;;62.75;51.00;;;;;4.84;72.54;102011.28;6246756;22;45254;-79
2023/01/26 08:19:45;;;;;;;;;64.75;49.75;;;;;4.82;72.35;102011.25;6246810;22;45203;-79
2023/01/26 08:22:11;;;;;;;;;58.25;46.25;;;;;4.98;71.70;102025.56;6276475;22;45231;-79
2023/01/26 08:24:36;;;;;;;;;61.00;48.50;;;;;4.90;71.98;102014.00;6247911;22;45187;-78
2023/01/26 08:27:02;;;;;;;;;59.50;47.25;;;;;4.97;71.76;102039.66;6277135;22;45177;-79
2023/01/26 08:29:27;;;;;;;;;63.50;50.00;;;;;4.84;72.07;102029.78;6248727;22;45375;-79
2023/01/26 08:31:52;;;;;;;;;61.00;45.25;;;;;4.63;71.47;102004.00;6276023;22;46127;-78
2023/01/26 08:34:18;;;;;;;;;64.50;48.25;;;;;4.83;71.97;102038.63;6275254;22;45214;-78
2023/01/26 08:36:43;;;;;;;;;65.00;49.25;;;;;4.68;72.02;102018.16;6274635;22;45690;-78
2023/01/26 08:39:09;;;;;;;;;53.00;41.50;;;;;4.73;71.88;102029.69;6275121;22;45219;-77
2023/01/26 08:41:34;;;;;;;;;64.25;45.50;;;;;4.79;72.55;102045.63;6273161;22;45540;-78
2023/01/26 08:43:59;;;;;;;;;65.50;46.75;;;;;4.83;71.93;102059.78;6275497;22;45312;-77
2023/01/26 08:46:25;;;;;;;;;61.25;47.00;;;;;4.83;71.95;102058.03;6275934;22;45380;-77
2023/01/26 08:48:51;;;;;;;;;61.50;46.25;;;;;4.74;72.57;102034.06;6276130;22;45527;-77
2023/01/26 08:51:17;;;;;;;;;58.25;43.75;;;;;4.74;72.44;102038.50;6248697;22;47016;-77
2023/01/26 08:53:42;;;;;;;;;61.50;50.00;;;;;4.88;72.75;102047.50;6277001;22;45422;-77
2023/01/26 08:56:10;;;;;;;;;67.75;49.25;;;;;4.93;72.46;102045.78;6278129;22;45180;-76
2023/01/26 08:58:36;;;;;;;;;68.00;50.25;;;;;4.97;72.18;102050.25;6248562;22;45396;-77
2023/01/26 09:01:12;;;;;;;;;65.00;49.50;;;;;4.97;71.86;102049.34;6276335;22;45793;-77
2023/01/26 09:03:37;;;;;;;;;64.00;47.50;;;;;5.06;72.00;102053.88;6276778;22;46216;-77
2023/01/26 09:06:04;;;;;;;;;65.50;49.50;;;;;5.06;72.29;102045.91;6273018;22;45262;-75
2023/01/26 09:08:30;;;;;;;;;62.25;47.00;;;;;5.05;71.13;102054.75;6275373;22;45238;-75
2023/01/26 09:10:55;;;;;;;;;52.25;43.00;;;;;4.91;71.32;102036.97;6276022;22;46020;-75
2023/01/26 09:13:21;;;;;;;;;64.00;45.25;;;;;4.98;71.82;102045.84;6275897;22;45438;-75
2023/01/26 09:15:46;;;;;;;;;60.25;46.75;;;;;5.03;72.10;102061.75;6274735;22;45368;-77
2023/01/26 09:18:12;;;;;;;;;63.00;48.50;;;;;4.94;71.95;102052.84;6248995;22;45315;-77
2023/01/26 09:20:37;;;;;;;;;61.25;44.50;;;;;4.92;71.88;102040.47;6249055;22;48186;-77
2023/01/26 09:23:03;;;;;;;;;65.25;50.00;;;;;5.07;72.28;102063.59;6249764;22;45231;-77
2023/01/26 09:25:29;;;;;;;;;56.00;45.00;;;;;5.09;72.37;102068.00;6277448;22;45643;-76
2023/01/26 09:27:54;;;;;;;;;64.75;50.00;;;;;5.13;71.70;102068.97;6277604;22;45368;-76
2023/01/26 09:30:19;;;;;;;;;59.50;46.25;;;;;5.17;72.47;102073.41;6276574;22;45211;-76
2023/01/26 09:32:45;;;;;;;;;44.25;40.50;;;;;5.22;72.66;102073.47;6248271;22;45227;-76
2023/01/26 09:35:10;;;;;;;;;57.75;42.00;;;;;5.25;72.21;102074.38;6249264;22;45163;-76
2023/01/26 09:37:37;;;;;;;;;50.50;38.75;;;;;5.29;72.42;102075.31;6249201;22;45306;-76
2023/01/26 09:40:03;;;;;;;;;38.25;33.50;;;;;5.27;72.65;102075.28;6276787;22;46297;-76
2023/01/26 09:42:58;;;;;;;;;38.75;34.75;;;;;5.27;71.92;102091.16;6275847;22;45268;-76
2023/01/26 09:45:29;;;;;;;;;32.50;29.25;;;;;5.23;72.42;102080.53;6209624;22;45381;-76
2023/01/26 09:48:18;;;;;;;;;34.25;29.50;;;;;5.17;72.23;102076.06;6275437;22;45227;-76
2023/01/26 09:50:59;;;;;;;;;33.25;29.75;;;;;5.27;71.70;102087.63;6277337;22;45288;-76
2023/01/26 09:54:00;;;;;;;;;37.50;33.50;;;;;5.29;71.75;102075.31;6248820;22;45249;-76
2023/01/26 09:56:28;;;;;;;;;44.75;37.25;;;;;5.23;71.78;102069.94;6245503;22;45250;-76
2023/01/26 09:59:05;;;;;;;;;36.00;33.00;;;;;5.24;71.56;102079.66;6276124;22;45394;-76
2023/01/26 10:01:37;;;;;;;;;49.00;38.75;;;;;5.35;71.78;102089.50;6249098;22;47262;-76
2023/01/26 10:04:09;;;;;;;;;42.75;36.50;;;;;5.39;71.67;102082.47;6276824;22;45206;-76
2023/01/26 10:06:36;;;;;;;;;46.50;42.00;;;;;5.27;72.29;102067.34;6278051;22;45204;-76
2023/01/26 10:09:14;;;;;;;;;49.50;37.00;;;;;5.35;72.62;102080.66;6276999;22;45443;-76
2023/01/26 10:11:45;;;;;;;;;45.50;39.00;;;;;5.39;73.27;102095.72;6277210;22;45389;-76
2023/01/26 10:14:32;;;;;;;;;33.25;31.25;;;;;5.29;72.38;102083.25;6249245;22;45233;-76
2023/01/26 10:16:59;;;;;;;;;39.00;33.00;;;;;5.33;72.68;102098.28;6247615;22;45272;-77
2023/01/26 10:19:54;;;;;;;;;35.75;27.50;;;;;5.15;73.09;102080.44;6276951;22;45454;-75
2023/01/26 10:22:42;;;;;;;;;40.50;32.25;;;;;5.17;72.91;102094.59;6276894;22;46161;-76
2023/01/26 10:25:28;;;;;;;;;44.50;34.25;;;;;5.12;73.36;102098.94;6250038;22;45211;-76
2023/01/26 10:27:54;;;;;;;;;50.75;40.00;;;;;5.17;73.05;102102.53;6277773;22;45308;-75
2023/01/26 10:30:20;;;;;;;;;41.00;35.25;;;;;5.14;73.43;102098.06;6276815;22;45208;-75
2023/01/26 10:32:49;;;;;;;;;47.00;39.75;;;;;5.15;73.11;102088.41;6249228;22;48328;-76
2023/01/26 10:35:24;;;;;;;;;48.75;38.25;;;;;5.22;73.61;102092.00;6275156;22;45591;-76
2023/01/26 10:37:51;;;;;;;;;42.50;34.75;;;;;5.27;73.72;102088.53;6249739;22;45255;-76
2023/01/26 10:40:18;;;;;;;;;32.75;23.75;;;;;5.30;73.53;102080.63;6276219;22;45550;-76
2023/01/26 10:42:57;;;;;;;;;38.75;35.25;;;;;5.19;73.63;102056.69;6274816;22;46299;-75
2023/01/26 10:45:32;;;;;;;;;42.25;35.25;;;;;5.50;73.13;102091.41;6274749;22;45237;-76
2023/01/26 10:48:23;;;;;;;;;46.00;34.00;;;;;5.56;73.08;102090.59;6246965;22;45399;-75
2023/01/26 10:50:49;;;;;;;;;40.25;37.50;;;;;5.53;72.89;102070.25;6274831;22;45345;-76
2023/01/26 10:53:28;;;;;;;;;47.75;38.75;;;;;5.56;73.15;102069.38;6274512;22;45476;-76
2023/01/26 10:56:10;;;;;;;;;52.50;44.75;;;;;5.62;73.07;102068.59;6249295;22;45572;-76
2023/01/26 10:58:53;;;;;;;;;44.25;35.50;;;;;5.69;72.84;102087.16;6276721;22;45235;-76
2023/01/26 11:01:26;;;;;;;;;42.75;36.75;;;;;5.72;72.95;102075.72;6246975;22;45715;-76
2023/01/26 11:04:05;;;;;;;;;42.50;37.75;;;;;5.64;72.41;102059.75;6248050;22;47989;-77
2023/01/26 11:06:31;;;;;;;;;38.75;36.75;;;;;5.80;72.07;102068.75;6274797;22;45786;-78
2023/01/26 11:09:17;;;;;;;;;39.00;36.25;;;;;5.83;73.15;102065.22;6276643;22;45290;-77
2023/01/26 11:12:01;;;;;;;;;46.50;39.00;;;;;5.65;72.32;102037.69;6249089;22;45422;-77
2023/01/26 11:14:28;;;;;;;;;43.00;38.25;;;;;5.87;72.81;102062.59;6277038;22;45231;-75
2023/01/26 11:17:14;;;;;;;;;38.75;32.00;;;;;5.77;72.47;102030.75;6275684;22;45255;-75
2023/01/26 11:20:11;;;;;;;;;39.50;33.75;;;;;5.87;73.05;102043.19;6276759;22;45239;-75
2023/01/26 11:22:46;;;;;;;;;42.50;38.50;;;;;5.99;72.81;102053.91;6276499;22;45232;-75
2023/01/26 11:25:26;;;;;;;;;39.25;36.00;;;;;6.00;73.05;102041.53;6248648;22;46248;-75
2023/01/26 11:28:19;;;;;;;;;39.75;36.00;;;;;6.09;72.55;102046.91;6249364;22;46190;-76
2023/01/26 11:31:09;;;;;;;;;46.50;39.25;;;;;6.11;72.93;102038.09;6249568;22;45363;-76
2023/01/26 11:33:50;;;;;;;;;44.25;37.25;;;;;6.08;72.98;102031.88;6249889;22;46089;-77
2023/01/26 11:36:30;;;;;;;;;42.25;38.00;;;;;6.06;72.76;102023.03;6277382;22;46537;-76
2023/01/26 11:39:01;;;;;;;;;42.00;36.50;;;;;6.15;72.96;102041.66;6249290;22;46383;-77
2023/01/26 11:42:04;;;;;;;;;34.00;33.75;;;;;6.14;72.83;102039.88;6277366;22;45243;-77
2023/01/26 11:44:46;;;;;;;;;49.25;39.50;;;;;6.15;72.75;102040.75;6277537;22;45348;-77
2023/01/26 11:47:25;;;;;;;;;33.50;29.50;;;;;6.13;73.07;102030.13;6277146;22;45228;-76
2023/01/26 11:50:12;;;;;;;;;40.50;36.00;;;;;6.06;72.28;102015.94;6249647;22;45837;-77
2023/01/26 11:52:49;;;;;;;;;39.50;32.75;;;;;6.02;72.14;102013.28;6277208;22;45321;-76
2023/01/26 11:55:30;;;;;;;;;34.00;32.50;;;;;6.11;72.60;102034.53;6249188;22;45667;-77
2023/01/26 11:58:14;;;;;;;;;41.00;32.25;;;;;6.05;72.81;102018.63;6277629;22;45471;-77
2023/01/26 12:00:45;;;;;;;;;38.50;32.75;;;;;6.04;72.49;102011.53;6248671;22;45297;-77
2023/01/26 12:03:50;;;;;;;;;36.25;30.75;;;;;6.21;72.83;102036.38;6277590;22;45282;-76
2023/01/26 12:06:35;;;;;;;;;40.75;34.25;;;;;6.24;72.46;102031.09;6274994;22;45318;-77
2023/01/26 12:09:20;;;;;;;;;32.00;28.25;;;;;6.23;72.27;102026.69;6277005;22;46126;-77
2023/01/26 12:11:56;;;;;;;;;34.25;31.50;;;;;6.17;72.66;102015.16;6276764;22;45628;-77
2023/01/26 12:14:40;;;;;;;;;46.00;34.25;;;;;6.25;72.85;102032.00;6277067;22;45192;-77